This is the latest recevied weather packets stored in our database for station/object KF5JED-13. If no packets are shown the sender has not sent any weather packets the latest 1 day(s).
| Time | Temp. | Humidity | Pressure | Rain* | Wind** | Luminosity | Snow |
|---|---|---|---|---|---|---|---|
| 1778110388 | 15° C | 48% | 1015.1 hPa | 0 mm | - | 266 W/m² | - |
| 1778110085 | 15.56° C | 48% | 1014.9 hPa | 0 mm | - | 280 W/m² | - |
| 1778107957 | 15° C | 48% | 1014.7 hPa | 0 mm | - | 401 W/m² | - |
| 1778107653 | 15.56° C | 48% | 1014.8 hPa | 0 mm | - | 420 W/m² | - |
| 1778106440 | 15.56° C | 48% | 1014.7 hPa | 0 mm | - | 517 W/m² | - |
| 1778103408 | 15° C | 50% | 1014.9 hPa | 0 mm | - | 636 W/m² | - |
| 1778102802 | 15.56° C | 49% | 1015 hPa | 0 mm | - | 666 W/m² | - |
| 1778101283 | 15.56° C | 48% | 1014.9 hPa | 0 mm | - | 660 W/m² | - |
| 1778097342 | 15.56° C | 48% | 1015 hPa | 0 mm | - | 826 W/m² | - |
| 1778096130 | 15.56° C | 49% | 1015.2 hPa | 0 mm | - | 922 W/m² | - |
| 1778095827 | 15.56° C | 49% | 1015.3 hPa | 0 mm | - | 550 W/m² | - |
| 1778095524 | 15.56° C | 48% | 1015.3 hPa | 0 mm | - | 509 W/m² | - |
| 1778094310 | 15° C | 50% | 1015.7 hPa | 0 mm | - | 1105 W/m² | - |
| 1778094007 | 15.56° C | 49% | 1015.7 hPa | 0 mm | - | 918 W/m² | - |
| 1778093098 | 15° C | 53% | 1015.5 hPa | 0 mm | - | 963 W/m² | - |
| 1778092795 | 13.89° C | 52% | 1015.8 hPa | 0 mm | - | 951 W/m² | - |
| 1778092490 | 14.44° C | 50% | 1015.9 hPa | 0 mm | - | 893 W/m² | - |
| 1778091280 | 13.89° C | 52% | 1016.2 hPa | 0 mm | - | 546 W/m² | - |
| 1778089763 | 13.89° C | 51% | 1016.1 hPa | 0 mm | - | 918 W/m² | - |
| 1778089461 | 14.44° C | 51% | 1016.3 hPa | 0 mm | - | 898 W/m² | - |
| 1778087945 | 14.44° C | 50% | 1016.3 hPa | 0 mm | - | 867 W/m² | - |
| 1778087642 | 13.33° C | 54% | 1016.6 hPa | 0 mm | - | 902 W/m² | - |
| 1778086123 | 12.22° C | 55% | 1016.5 hPa | 0 mm | - | 321 W/m² | - |
| 1778085820 | 13.89° C | 52% | 1016.5 hPa | 0 mm | - | 870 W/m² | - |
| 1778085212 | 12.22° C | 56% | 1016.7 hPa | 0 mm | - | 816 W/m² | - |
* Rain latest hour (hover to see other rain measurements)
** Current wind speed in m/s (hover to see current wind gust speed)